sensor_id;sensor_type;location;lat;lon;timestamp;P1;durP1;ratioP1;P2;durP2;ratioP2
1765;SDS011;880;52.452;8.656;2023-07-13T00:02:07;6.95;;;6.35;;
1765;SDS011;880;52.452;8.656;2023-07-13T00:04:35;6.65;;;6.00;;
1765;SDS011;880;52.452;8.656;2023-07-13T00:07:02;10.63;;;6.47;;
1765;SDS011;880;52.452;8.656;2023-07-13T00:09:29;9.60;;;6.63;;
1765;SDS011;880;52.452;8.656;2023-07-13T00:11:57;6.97;;;6.38;;
1765;SDS011;880;52.452;8.656;2023-07-13T00:14:25;9.20;;;7.43;;
1765;SDS011;880;52.452;8.656;2023-07-13T00:16:54;10.88;;;6.50;;
1765;SDS011;880;52.452;8.656;2023-07-13T00:19:21;7.70;;;6.60;;
1765;SDS011;880;52.452;8.656;2023-07-13T00:21:48;11.63;;;7.35;;
1765;SDS011;880;52.452;8.656;2023-07-13T00:24:16;8.45;;;6.63;;
1765;SDS011;880;52.452;8.656;2023-07-13T00:26:50;8.02;;;6.70;;
1765;SDS011;880;52.452;8.656;2023-07-13T00:29:17;9.43;;;6.65;;
1765;SDS011;880;52.452;8.656;2023-07-13T00:31:44;7.75;;;6.72;;
1765;SDS011;880;52.452;8.656;2023-07-13T00:34:12;7.60;;;6.60;;
1765;SDS011;880;52.452;8.656;2023-07-13T00:36:39;8.57;;;7.15;;
1765;SDS011;880;52.452;8.656;2023-07-13T00:39:06;9.88;;;6.88;;
1765;SDS011;880;52.452;8.656;2023-07-13T00:41:34;8.80;;;6.65;;
1765;SDS011;880;52.452;8.656;2023-07-13T00:44:03;10.13;;;6.57;;
1765;SDS011;880;52.452;8.656;2023-07-13T00:46:32;8.20;;;6.43;;
1765;SDS011;880;52.452;8.656;2023-07-13T00:49:03;7.07;;;6.32;;
1765;SDS011;880;52.452;8.656;2023-07-13T00:51:36;7.07;;;5.10;;
1765;SDS011;880;52.452;8.656;2023-07-13T00:54:12;7.82;;;6.95;;
1765;SDS011;880;52.452;8.656;2023-07-13T00:56:44;6.78;;;5.35;;
1765;SDS011;880;52.452;8.656;2023-07-13T00:59:14;7.78;;;5.22;;
1765;SDS011;880;52.452;8.656;2023-07-13T01:01:44;9.10;;;5.18;;
1765;SDS011;880;52.452;8.656;2023-07-13T01:04:12;9.63;;;4.10;;
1765;SDS011;880;52.452;8.656;2023-07-13T01:06:40;7.85;;;5.03;;
1765;SDS011;880;52.452;8.656;2023-07-13T01:09:10;9.85;;;5.93;;
1765;SDS011;880;52.452;8.656;2023-07-13T01:11:38;6.22;;;4.68;;
1765;SDS011;880;52.452;8.656;2023-07-13T01:14:06;5.20;;;4.60;;
1765;SDS011;880;52.452;8.656;2023-07-13T01:16:34;4.95;;;4.50;;
1765;SDS011;880;52.452;8.656;2023-07-13T01:19:07;8.65;;;5.90;;
1765;SDS011;880;52.452;8.656;2023-07-13T01:22:14;7.10;;;4.55;;
1765;SDS011;880;52.452;8.656;2023-07-13T01:24:49;5.55;;;3.35;;
1765;SDS011;880;52.452;8.656;2023-07-13T01:27:16;6.07;;;3.85;;
1765;SDS011;880;52.452;8.656;2023-07-13T01:29:52;4.22;;;3.83;;
1765;SDS011;880;52.452;8.656;2023-07-13T01:32:20;6.65;;;4.55;;
1765;SDS011;880;52.452;8.656;2023-07-13T01:34:54;5.28;;;4.15;;
1765;SDS011;880;52.452;8.656;2023-07-13T01:37:21;4.65;;;3.97;;
1765;SDS011;880;52.452;8.656;2023-07-13T01:39:52;7.13;;;4.28;;
1765;SDS011;880;52.452;8.656;2023-07-13T01:42:19;4.80;;;3.72;;
1765;SDS011;880;52.452;8.656;2023-07-13T01:44:49;6.45;;;3.83;;
1765;SDS011;880;52.452;8.656;2023-07-13T01:47:16;5.93;;;3.80;;
1765;SDS011;880;52.452;8.656;2023-07-13T01:49:44;7.07;;;3.35;;
1765;SDS011;880;52.452;8.656;2023-07-13T01:52:13;5.28;;;4.03;;
1765;SDS011;880;52.452;8.656;2023-07-13T01:54:40;5.40;;;4.50;;
1765;SDS011;880;52.452;8.656;2023-07-13T01:57:08;8.18;;;3.70;;
1765;SDS011;880;52.452;8.656;2023-07-13T01:59:35;6.72;;;3.30;;
1765;SDS011;880;52.452;8.656;2023-07-13T02:02:02;6.03;;;3.25;;
1765;SDS011;880;52.452;8.656;2023-07-13T02:04:29;6.85;;;3.00;;
1765;SDS011;880;52.452;8.656;2023-07-13T02:06:56;8.60;;;3.13;;
1765;SDS011;880;52.452;8.656;2023-07-13T02:09:23;3.45;;;2.92;;
1765;SDS011;880;52.452;8.656;2023-07-13T02:11:50;7.53;;;3.15;;
1765;SDS011;880;52.452;8.656;2023-07-13T02:14:17;7.03;;;4.22;;
1765;SDS011;880;52.452;8.656;2023-07-13T02:16:44;9.93;;;3.13;;
1765;SDS011;880;52.452;8.656;2023-07-13T02:19:11;7.20;;;3.25;;
1765;SDS011;880;52.452;8.656;2023-07-13T02:21:38;6.80;;;4.00;;
1765;SDS011;880;52.452;8.656;2023-07-13T02:24:05;8.57;;;3.47;;
1765;SDS011;880;52.452;8.656;2023-07-13T02:26:33;7.72;;;3.70;;
1765;SDS011;880;52.452;8.656;2023-07-13T02:29:01;10.27;;;3.40;;
1765;SDS011;880;52.452;8.656;2023-07-13T02:31:28;6.45;;;2.75;;
1765;SDS011;880;52.452;8.656;2023-07-13T02:33:55;8.10;;;3.38;;
1765;SDS011;880;52.452;8.656;2023-07-13T02:36:22;4.93;;;3.20;;
1765;SDS011;880;52.452;8.656;2023-07-13T02:38:49;7.55;;;3.53;;
1765;SDS011;880;52.452;8.656;2023-07-13T02:41:16;8.60;;;3.25;;
1765;SDS011;880;52.452;8.656;2023-07-13T02:43:45;6.55;;;2.85;;
1765;SDS011;880;52.452;8.656;2023-07-13T02:46:12;6.65;;;3.25;;
1765;SDS011;880;52.452;8.656;2023-07-13T02:48:40;10.43;;;3.75;;
1765;SDS011;880;52.452;8.656;2023-07-13T02:51:07;7.30;;;3.30;;
1765;SDS011;880;52.452;8.656;2023-07-13T02:53:34;7.75;;;3.33;;
1765;SDS011;880;52.452;8.656;2023-07-13T02:56:02;6.63;;;3.10;;
1765;SDS011;880;52.452;8.656;2023-07-13T02:58:31;8.48;;;3.35;;
1765;SDS011;880;52.452;8.656;2023-07-13T03:00:58;5.50;;;3.50;;
1765;SDS011;880;52.452;8.656;2023-07-13T03:03:26;10.90;;;4.45;;
1765;SDS011;880;52.452;8.656;2023-07-13T03:05:58;5.22;;;3.65;;
1765;SDS011;880;52.452;8.656;2023-07-13T03:08:33;5.40;;;2.80;;
1765;SDS011;880;52.452;8.656;2023-07-13T03:11:07;7.25;;;4.47;;
1765;SDS011;880;52.452;8.656;2023-07-13T03:13:39;6.82;;;3.35;;
1765;SDS011;880;52.452;8.656;2023-07-13T03:16:08;12.15;;;4.25;;
1765;SDS011;880;52.452;8.656;2023-07-13T03:18:37;7.43;;;3.92;;
1765;SDS011;880;52.452;8.656;2023-07-13T03:21:07;3.83;;;3.25;;
1765;SDS011;880;52.452;8.656;2023-07-13T03:23:35;4.93;;;4.47;;
1765;SDS011;880;52.452;8.656;2023-07-13T03:26:06;7.50;;;3.97;;
1765;SDS011;880;52.452;8.656;2023-07-13T03:28:40;6.05;;;4.90;;
1765;SDS011;880;52.452;8.656;2023-07-13T03:31:18;6.72;;;4.40;;
1765;SDS011;880;52.452;8.656;2023-07-13T03:33:48;9.90;;;4.75;;
1765;SDS011;880;52.452;8.656;2023-07-13T03:36:17;9.20;;;4.82;;
1765;SDS011;880;52.452;8.656;2023-07-13T03:38:52;6.15;;;5.55;;
1765;SDS011;880;52.452;8.656;2023-07-13T03:41:25;9.25;;;5.75;;
1765;SDS011;880;52.452;8.656;2023-07-13T03:43:54;9.13;;;5.03;;
1765;SDS011;880;52.452;8.656;2023-07-13T03:46:23;7.03;;;5.90;;
1765;SDS011;880;52.452;8.656;2023-07-13T03:48:50;8.35;;;5.80;;
1765;SDS011;880;52.452;8.656;2023-07-13T03:51:17;8.30;;;6.22;;
1765;SDS011;880;52.452;8.656;2023-07-13T03:53:45;7.70;;;6.40;;
1765;SDS011;880;52.452;8.656;2023-07-13T03:56:16;8.77;;;5.70;;
1765;SDS011;880;52.452;8.656;2023-07-13T03:58:45;7.40;;;4.53;;
1765;SDS011;880;52.452;8.656;2023-07-13T04:01:19;11.60;;;4.65;;
1765;SDS011;880;52.452;8.656;2023-07-13T04:03:48;6.82;;;4.85;;
1765;SDS011;880;52.452;8.656;2023-07-13T04:06:36;8.48;;;4.65;;
1765;SDS011;880;52.452;8.656;2023-07-13T04:09:03;9.38;;;4.75;;
1765;SDS011;880;52.452;8.656;2023-07-13T04:11:36;6.30;;;5.55;;
1765;SDS011;880;52.452;8.656;2023-07-13T04:14:05;7.72;;;5.18;;
1765;SDS011;880;52.452;8.656;2023-07-13T04:16:33;8.07;;;5.07;;
1765;SDS011;880;52.452;8.656;2023-07-13T04:19:00;10.95;;;5.82;;
1765;SDS011;880;52.452;8.656;2023-07-13T04:21:28;12.73;;;5.20;;
1765;SDS011;880;52.452;8.656;2023-07-13T04:23:57;7.63;;;5.63;;
1765;SDS011;880;52.452;8.656;2023-07-13T04:26:24;11.98;;;5.20;;
1765;SDS011;880;52.452;8.656;2023-07-13T04:28:51;10.38;;;5.68;;
1765;SDS011;880;52.452;8.656;2023-07-13T04:31:18;8.85;;;5.50;;
1765;SDS011;880;52.452;8.656;2023-07-13T04:33:46;8.90;;;5.63;;
1765;SDS011;880;52.452;8.656;2023-07-13T04:36:15;10.32;;;6.38;;
1765;SDS011;880;52.452;8.656;2023-07-13T04:38:42;7.72;;;6.20;;
1765;SDS011;880;52.452;8.656;2023-07-13T04:41:10;14.55;;;6.03;;
1765;SDS011;880;52.452;8.656;2023-07-13T04:43:37;8.98;;;6.45;;
1765;SDS011;880;52.452;8.656;2023-07-13T04:46:05;10.07;;;5.95;;
1765;SDS011;880;52.452;8.656;2023-07-13T04:48:35;8.48;;;7.55;;
1765;SDS011;880;52.452;8.656;2023-07-13T04:51:02;13.60;;;6.25;;
1765;SDS011;880;52.452;8.656;2023-07-13T04:53:30;9.45;;;6.38;;
1765;SDS011;880;52.452;8.656;2023-07-13T04:55:59;10.95;;;5.93;;
1765;SDS011;880;52.452;8.656;2023-07-13T04:58:26;7.70;;;5.65;;
1765;SDS011;880;52.452;8.656;2023-07-13T05:00:59;15.05;;;5.57;;
1765;SDS011;880;52.452;8.656;2023-07-13T05:03:28;8.88;;;7.90;;
1765;SDS011;880;52.452;8.656;2023-07-13T05:05:59;7.38;;;6.63;;
1765;SDS011;880;52.452;8.656;2023-07-13T05:08:29;9.57;;;6.50;;
1765;SDS011;880;52.452;8.656;2023-07-13T05:10:56;12.63;;;6.60;;
1765;SDS011;880;52.452;8.656;2023-07-13T05:13:23;10.93;;;6.68;;
1765;SDS011;880;52.452;8.656;2023-07-13T05:15:57;13.82;;;5.85;;
1765;SDS011;880;52.452;8.656;2023-07-13T05:21:01;5.28;;;4.88;;
1765;SDS011;880;52.452;8.656;2023-07-13T05:23:31;9.73;;;5.95;;
1765;SDS011;880;52.452;8.656;2023-07-13T05:25:59;6.63;;;5.50;;
1765;SDS011;880;52.452;8.656;2023-07-13T05:28:27;5.60;;;5.10;;
1765;SDS011;880;52.452;8.656;2023-07-13T05:30:56;5.57;;;5.10;;
1765;SDS011;880;52.452;8.656;2023-07-13T05:33:24;12.48;;;7.47;;
1765;SDS011;880;52.452;8.656;2023-07-13T05:35:52;11.35;;;6.15;;
1765;SDS011;880;52.452;8.656;2023-07-13T05:38:19;9.25;;;6.13;;
1765;SDS011;880;52.452;8.656;2023-07-13T05:40:46;10.30;;;6.13;;
1765;SDS011;880;52.452;8.656;2023-07-13T05:43:14;8.20;;;5.40;;
1765;SDS011;880;52.452;8.656;2023-07-13T05:45:41;6.30;;;5.28;;
1765;SDS011;880;52.452;8.656;2023-07-13T05:48:08;5.55;;;5.05;;
1765;SDS011;880;52.452;8.656;2023-07-13T05:50:36;9.57;;;5.65;;
1765;SDS011;880;52.452;8.656;2023-07-13T05:53:03;9.88;;;6.07;;
1765;SDS011;880;52.452;8.656;2023-07-13T05:55:31;6.03;;;5.50;;
1765;SDS011;880;52.452;8.656;2023-07-13T05:58:00;7.57;;;5.80;;
1765;SDS011;880;52.452;8.656;2023-07-13T06:00:27;9.32;;;6.45;;
1765;SDS011;880;52.452;8.656;2023-07-13T06:02:55;9.25;;;6.22;;
1765;SDS011;880;52.452;8.656;2023-07-13T06:05:23;6.55;;;5.97;;
1765;SDS011;880;52.452;8.656;2023-07-13T06:07:50;7.53;;;6.18;;
1765;SDS011;880;52.452;8.656;2023-07-13T06:10:17;8.00;;;7.20;;
1765;SDS011;880;52.452;8.656;2023-07-13T06:12:44;7.28;;;6.57;;
1765;SDS011;880;52.452;8.656;2023-07-13T06:15:11;8.48;;;5.78;;
1765;SDS011;880;52.452;8.656;2023-07-13T06:17:38;5.95;;;5.32;;
1765;SDS011;880;52.452;8.656;2023-07-13T06:20:05;7.00;;;6.25;;
1765;SDS011;880;52.452;8.656;2023-07-13T06:22:33;9.10;;;5.70;;
1765;SDS011;880;52.452;8.656;2023-07-13T06:25:00;8.30;;;6.03;;
1765;SDS011;880;52.452;8.656;2023-07-13T06:27:27;11.93;;;6.68;;
1765;SDS011;880;52.452;8.656;2023-07-13T06:29:56;11.13;;;6.07;;
1765;SDS011;880;52.452;8.656;2023-07-13T06:32:23;6.82;;;5.95;;
1765;SDS011;880;52.452;8.656;2023-07-13T06:34:50;9.80;;;6.43;;
1765;SDS011;880;52.452;8.656;2023-07-13T06:37:18;10.52;;;6.43;;
1765;SDS011;880;52.452;8.656;2023-07-13T06:39:45;7.43;;;6.68;;
1765;SDS011;880;52.452;8.656;2023-07-13T06:42:12;8.75;;;6.05;;
1765;SDS011;880;52.452;8.656;2023-07-13T06:44:40;9.55;;;6.35;;
1765;SDS011;880;52.452;8.656;2023-07-13T06:47:07;8.90;;;6.75;;
1765;SDS011;880;52.452;8.656;2023-07-13T06:49:34;11.57;;;5.70;;
1765;SDS011;880;52.452;8.656;2023-07-13T06:52:01;10.25;;;6.63;;
1765;SDS011;880;52.452;8.656;2023-07-13T06:54:28;9.77;;;6.13;;
1765;SDS011;880;52.452;8.656;2023-07-13T06:56:55;14.77;;;7.60;;
1765;SDS011;880;52.452;8.656;2023-07-13T06:59:22;12.55;;;6.13;;
1765;SDS011;880;52.452;8.656;2023-07-13T07:01:49;7.65;;;6.95;;
1765;SDS011;880;52.452;8.656;2023-07-13T07:04:16;9.82;;;5.95;;
1765;SDS011;880;52.452;8.656;2023-07-13T07:06:43;9.68;;;6.63;;
1765;SDS011;880;52.452;8.656;2023-07-13T07:09:10;10.43;;;7.55;;
1765;SDS011;880;52.452;8.656;2023-07-13T07:11:37;10.88;;;7.13;;
1765;SDS011;880;52.452;8.656;2023-07-13T07:14:22;10.30;;;5.88;;
1765;SDS011;880;52.452;8.656;2023-07-13T07:16:50;10.73;;;6.63;;
1765;SDS011;880;52.452;8.656;2023-07-13T07:19:17;7.63;;;6.00;;
1765;SDS011;880;52.452;8.656;2023-07-13T07:21:44;9.80;;;6.25;;
1765;SDS011;880;52.452;8.656;2023-07-13T07:24:11;10.93;;;5.93;;
1765;SDS011;880;52.452;8.656;2023-07-13T07:26:37;7.35;;;5.97;;
1765;SDS011;880;52.452;8.656;2023-07-13T07:29:07;7.72;;;6.55;;
1765;SDS011;880;52.452;8.656;2023-07-13T07:31:37;8.15;;;6.18;;
1765;SDS011;880;52.452;8.656;2023-07-13T07:34:07;6.70;;;6.00;;
1765;SDS011;880;52.452;8.656;2023-07-13T07:36:34;10.45;;;6.60;;
1765;SDS011;880;52.452;8.656;2023-07-13T07:39:04;9.10;;;6.75;;
1765;SDS011;880;52.452;8.656;2023-07-13T07:41:31;11.45;;;7.07;;
1765;SDS011;880;52.452;8.656;2023-07-13T07:44:01;11.00;;;8.55;;
1765;SDS011;880;52.452;8.656;2023-07-13T07:46:28;8.80;;;7.95;;
1765;SDS011;880;52.452;8.656;2023-07-13T07:48:55;7.53;;;6.63;;
1765;SDS011;880;52.452;8.656;2023-07-13T07:51:22;7.63;;;6.72;;
1765;SDS011;880;52.452;8.656;2023-07-13T07:53:49;9.00;;;6.13;;
1765;SDS011;880;52.452;8.656;2023-07-13T07:56:16;7.78;;;6.47;;
1765;SDS011;880;52.452;8.656;2023-07-13T07:58:47;9.25;;;6.18;;
1765;SDS011;880;52.452;8.656;2023-07-13T08:01:17;7.22;;;6.30;;
1765;SDS011;880;52.452;8.656;2023-07-13T08:03:47;9.45;;;8.55;;
1765;SDS011;880;52.452;8.656;2023-07-13T08:06:17;7.50;;;6.70;;
1765;SDS011;880;52.452;8.656;2023-07-13T08:08:49;7.45;;;6.57;;
1765;SDS011;880;52.452;8.656;2023-07-13T08:11:16;6.95;;;6.45;;
1765;SDS011;880;52.452;8.656;2023-07-13T08:13:46;6.65;;;6.05;;
1765;SDS011;880;52.452;8.656;2023-07-13T08:16:13;7.25;;;6.55;;
1765;SDS011;880;52.452;8.656;2023-07-13T08:18:40;8.20;;;6.60;;
1765;SDS011;880;52.452;8.656;2023-07-13T08:21:07;9.10;;;8.60;;
1765;SDS011;880;52.452;8.656;2023-07-13T08:23:36;7.30;;;6.55;;
1765;SDS011;880;52.452;8.656;2023-07-13T08:26:03;6.80;;;6.30;;
1765;SDS011;880;52.452;8.656;2023-07-13T08:28:31;9.30;;;6.05;;
1765;SDS011;880;52.452;8.656;2023-07-13T08:31:06;7.40;;;6.72;;
1765;SDS011;880;52.452;8.656;2023-07-13T08:33:34;6.60;;;6.20;;
1765;SDS011;880;52.452;8.656;2023-07-13T08:36:02;11.52;;;6.53;;
1765;SDS011;880;52.452;8.656;2023-07-13T08:38:31;8.98;;;6.90;;
1765;SDS011;880;52.452;8.656;2023-07-13T08:40:58;7.18;;;6.53;;
1765;SDS011;880;52.452;8.656;2023-07-13T08:43:26;7.47;;;6.97;;
1765;SDS011;880;52.452;8.656;2023-07-13T08:45:59;7.65;;;6.88;;
1765;SDS011;880;52.452;8.656;2023-07-13T08:48:59;10.68;;;6.90;;
1765;SDS011;880;52.452;8.656;2023-07-13T08:54:14;6.60;;;5.82;;
1765;SDS011;880;52.452;8.656;2023-07-13T08:57:05;6.85;;;6.35;;
1765;SDS011;880;52.452;8.656;2023-07-13T08:59:40;7.07;;;6.55;;
1765;SDS011;880;52.452;8.656;2023-07-13T09:05:25;7.25;;;6.25;;
1765;SDS011;880;52.452;8.656;2023-07-13T09:08:07;8.15;;;7.45;;
1765;SDS011;880;52.452;8.656;2023-07-13T09:11:16;6.53;;;5.93;;
1765;SDS011;880;52.452;8.656;2023-07-13T09:19:21;7.57;;;5.53;;
1765;SDS011;880;52.452;8.656;2023-07-13T09:21:53;5.60;;;5.07;;
1765;SDS011;880;52.452;8.656;2023-07-13T09:24:28;7.30;;;5.95;;
1765;SDS011;880;52.452;8.656;2023-07-13T09:27:23;6.05;;;5.50;;
1765;SDS011;880;52.452;8.656;2023-07-13T09:35:16;6.07;;;5.05;;
1765;SDS011;880;52.452;8.656;2023-07-13T09:37:48;8.25;;;5.40;;
1765;SDS011;880;52.452;8.656;2023-07-13T09:40:22;6.20;;;5.60;;
1765;SDS011;880;52.452;8.656;2023-07-13T09:42:59;6.32;;;5.90;;
1765;SDS011;880;52.452;8.656;2023-07-13T09:45:30;9.02;;;5.70;;
1765;SDS011;880;52.452;8.656;2023-07-13T09:48:03;6.45;;;5.85;;
1765;SDS011;880;52.452;8.656;2023-07-13T09:50:36;8.68;;;7.88;;
1765;SDS011;880;52.452;8.656;2023-07-13T09:53:03;6.63;;;5.78;;
1765;SDS011;880;52.452;8.656;2023-07-13T10:00:37;6.95;;;6.32;;
1765;SDS011;880;52.452;8.656;2023-07-13T10:03:16;6.32;;;5.78;;
1765;SDS011;880;52.452;8.656;2023-07-13T10:05:47;7.68;;;6.15;;
1765;SDS011;880;52.452;8.656;2023-07-13T10:08:21;5.85;;;5.55;;
1765;SDS011;880;52.452;8.656;2023-07-13T10:11:01;6.97;;;6.35;;
1765;SDS011;880;52.452;8.656;2023-07-13T10:16:23;8.82;;;6.20;;
1765;SDS011;880;52.452;8.656;2023-07-13T10:18:55;6.35;;;5.90;;
1765;SDS011;880;52.452;8.656;2023-07-13T10:21:26;5.70;;;5.32;;
1765;SDS011;880;52.452;8.656;2023-07-13T10:24:21;5.43;;;5.13;;
1765;SDS011;880;52.452;8.656;2023-07-13T10:27:03;7.75;;;6.32;;
1765;SDS011;880;52.452;8.656;2023-07-13T10:32:57;7.07;;;6.57;;
1765;SDS011;880;52.452;8.656;2023-07-13T10:35:27;7.30;;;6.20;;
1765;SDS011;880;52.452;8.656;2023-07-13T10:38:06;8.70;;;8.05;;
1765;SDS011;880;52.452;8.656;2023-07-13T10:43:14;7.38;;;6.13;;
1765;SDS011;880;52.452;8.656;2023-07-13T10:45:46;6.72;;;6.13;;
1765;SDS011;880;52.452;8.656;2023-07-13T10:48:17;5.88;;;5.47;;
1765;SDS011;880;52.452;8.656;2023-07-13T10:50:46;8.90;;;6.25;;
1765;SDS011;880;52.452;8.656;2023-07-13T10:53:18;6.53;;;6.07;;
1765;SDS011;880;52.452;8.656;2023-07-13T10:55:58;7.00;;;6.55;;
1765;SDS011;880;52.452;8.656;2023-07-13T10:58:43;6.40;;;6.00;;
1765;SDS011;880;52.452;8.656;2023-07-13T11:01:13;9.65;;;6.57;;
1765;SDS011;880;52.452;8.656;2023-07-13T11:03:51;7.18;;;6.57;;
1765;SDS011;880;52.452;8.656;2023-07-13T11:08:56;6.32;;;5.82;;
1765;SDS011;880;52.452;8.656;2023-07-13T11:13:58;6.40;;;6.00;;
1765;SDS011;880;52.452;8.656;2023-07-13T11:16:42;8.02;;;6.13;;
1765;SDS011;880;52.452;8.656;2023-07-13T11:35:49;6.63;;;6.22;;
1765;SDS011;880;52.452;8.656;2023-07-13T11:38:33;9.18;;;6.32;;
1765;SDS011;880;52.452;8.656;2023-07-13T11:41:05;6.63;;;6.03;;
1765;SDS011;880;52.452;8.656;2023-07-13T11:43:49;6.65;;;6.05;;
1765;SDS011;880;52.452;8.656;2023-07-13T11:46:21;6.88;;;6.28;;
1765;SDS011;880;52.452;8.656;2023-07-13T11:48:54;6.50;;;5.90;;
1765;SDS011;880;52.452;8.656;2023-07-13T11:51:31;6.22;;;5.82;;
1765;SDS011;880;52.452;8.656;2023-07-13T11:54:05;7.88;;;6.47;;
1765;SDS011;880;52.452;8.656;2023-07-13T11:56:46;6.65;;;6.10;;
1765;SDS011;880;52.452;8.656;2023-07-13T11:59:13;8.35;;;7.38;;
1765;SDS011;880;52.452;8.656;2023-07-13T12:01:42;7.50;;;6.90;;
1765;SDS011;880;52.452;8.656;2023-07-13T12:04:19;6.50;;;6.10;;
1765;SDS011;880;52.452;8.656;2023-07-13T12:06:56;7.43;;;6.80;;
1765;SDS011;880;52.452;8.656;2023-07-13T12:09:31;6.82;;;6.25;;
1765;SDS011;880;52.452;8.656;2023-07-13T12:12:02;8.38;;;7.68;;
1765;SDS011;880;52.452;8.656;2023-07-13T12:14:34;5.78;;;5.43;;
1765;SDS011;880;52.452;8.656;2023-07-13T12:17:04;8.38;;;7.88;;
1765;SDS011;880;52.452;8.656;2023-07-13T12:19:55;6.50;;;5.95;;
1765;SDS011;880;52.452;8.656;2023-07-13T12:22:23;5.55;;;5.35;;
1765;SDS011;880;52.452;8.656;2023-07-13T12:24:51;6.57;;;6.18;;
1765;SDS011;880;52.452;8.656;2023-07-13T12:27:21;6.22;;;5.68;;
1765;SDS011;880;52.452;8.656;2023-07-13T12:29:52;5.72;;;5.38;;
1765;SDS011;880;52.452;8.656;2023-07-13T12:32:31;5.80;;;5.43;;
1765;SDS011;880;52.452;8.656;2023-07-13T12:37:57;5.53;;;5.32;;
1765;SDS011;880;52.452;8.656;2023-07-13T12:40:29;5.63;;;5.32;;
1765;SDS011;880;52.452;8.656;2023-07-13T12:43:02;6.13;;;5.72;;
1765;SDS011;880;52.452;8.656;2023-07-13T12:45:33;5.05;;;4.75;;
1765;SDS011;880;52.452;8.656;2023-07-13T12:48:37;5.47;;;5.28;;
1765;SDS011;880;52.452;8.656;2023-07-13T12:51:11;4.85;;;4.63;;
1765;SDS011;880;52.452;8.656;2023-07-13T12:53:41;7.50;;;6.88;;
1765;SDS011;880;52.452;8.656;2023-07-13T12:56:24;5.68;;;5.28;;
1765;SDS011;880;52.452;8.656;2023-07-13T12:59:01;4.97;;;4.72;;
1765;SDS011;880;52.452;8.656;2023-07-13T13:01:32;5.45;;;4.97;;
1765;SDS011;880;52.452;8.656;2023-07-13T13:04:03;4.88;;;4.68;;
1765;SDS011;880;52.452;8.656;2023-07-13T13:06:37;5.85;;;5.50;;
1765;SDS011;880;52.452;8.656;2023-07-13T13:09:05;6.10;;;5.70;;
1765;SDS011;880;52.452;8.656;2023-07-13T13:11:39;6.20;;;5.90;;
1765;SDS011;880;52.452;8.656;2023-07-13T13:14:07;6.53;;;5.93;;
1765;SDS011;880;52.452;8.656;2023-07-13T13:16:37;6.55;;;6.05;;
1765;SDS011;880;52.452;8.656;2023-07-13T13:19:26;5.00;;;4.80;;
1765;SDS011;880;52.452;8.656;2023-07-13T13:21:55;5.70;;;5.22;;
1765;SDS011;880;52.452;8.656;2023-07-13T13:24:24;5.65;;;5.07;;
1765;SDS011;880;52.452;8.656;2023-07-13T13:26:54;5.47;;;5.00;;
1765;SDS011;880;52.452;8.656;2023-07-13T13:29:24;5.65;;;5.10;;
1765;SDS011;880;52.452;8.656;2023-07-13T13:31:52;5.53;;;5.00;;
1765;SDS011;880;52.452;8.656;2023-07-13T13:34:21;5.53;;;5.07;;
1765;SDS011;880;52.452;8.656;2023-07-13T13:36:53;7.15;;;5.15;;
1765;SDS011;880;52.452;8.656;2023-07-13T13:39:31;5.60;;;5.10;;
1765;SDS011;880;52.452;8.656;2023-07-13T13:42:01;4.70;;;4.40;;
1765;SDS011;880;52.452;8.656;2023-07-13T13:44:28;5.10;;;4.75;;
1765;SDS011;880;52.452;8.656;2023-07-13T13:46:55;5.35;;;4.65;;
1765;SDS011;880;52.452;8.656;2023-07-13T13:49:23;5.18;;;4.78;;
1765;SDS011;880;52.452;8.656;2023-07-13T13:51:53;4.50;;;4.20;;
1765;SDS011;880;52.452;8.656;2023-07-13T13:54:21;6.75;;;4.82;;
1765;SDS011;880;52.452;8.656;2023-07-13T13:56:52;4.43;;;4.13;;
1765;SDS011;880;52.452;8.656;2023-07-13T13:59:19;7.03;;;5.25;;
1765;SDS011;880;52.452;8.656;2023-07-13T14:01:47;5.00;;;4.70;;
1765;SDS011;880;52.452;8.656;2023-07-13T14:04:17;5.05;;;4.57;;
1765;SDS011;880;52.452;8.656;2023-07-13T14:06:46;5.90;;;5.32;;
1765;SDS011;880;52.452;8.656;2023-07-13T14:09:15;6.40;;;5.88;;
1765;SDS011;880;52.452;8.656;2023-07-13T14:11:45;6.72;;;5.57;;
1765;SDS011;880;52.452;8.656;2023-07-13T14:14:20;6.07;;;5.57;;
1765;SDS011;880;52.452;8.656;2023-07-13T14:16:50;6.57;;;6.07;;
1765;SDS011;880;52.452;8.656;2023-07-13T14:19:20;6.80;;;6.22;;
1765;SDS011;880;52.452;8.656;2023-07-13T14:21:48;6.85;;;6.35;;
1765;SDS011;880;52.452;8.656;2023-07-13T14:24:16;5.75;;;5.25;;
1765;SDS011;880;52.452;8.656;2023-07-13T14:26:46;5.93;;;5.63;;
1765;SDS011;880;52.452;8.656;2023-07-13T14:29:14;6.32;;;5.75;;
1765;SDS011;880;52.452;8.656;2023-07-13T14:31:49;5.93;;;5.50;;
1765;SDS011;880;52.452;8.656;2023-07-13T14:34:16;5.10;;;4.80;;
1765;SDS011;880;52.452;8.656;2023-07-13T14:36:44;5.45;;;5.03;;
1765;SDS011;880;52.452;8.656;2023-07-13T14:39:20;5.10;;;4.60;;
1765;SDS011;880;52.452;8.656;2023-07-13T14:41:50;5.97;;;5.30;;
1765;SDS011;880;52.452;8.656;2023-07-13T14:44:20;5.07;;;4.68;;
1765;SDS011;880;52.452;8.656;2023-07-13T14:46:52;5.47;;;5.07;;
1765;SDS011;880;52.452;8.656;2023-07-13T14:49:30;6.65;;;6.05;;
1765;SDS011;880;52.452;8.656;2023-07-13T14:52:09;6.90;;;6.22;;
1765;SDS011;880;52.452;8.656;2023-07-13T14:54:43;6.95;;;6.45;;
1765;SDS011;880;52.452;8.656;2023-07-13T14:57:12;7.60;;;7.10;;
1765;SDS011;880;52.452;8.656;2023-07-13T14:59:42;11.15;;;10.10;;
1765;SDS011;880;52.452;8.656;2023-07-13T15:02:17;9.05;;;8.18;;
1765;SDS011;880;52.452;8.656;2023-07-13T15:04:56;8.02;;;7.43;;
1765;SDS011;880;52.452;8.656;2023-07-13T15:07:24;7.97;;;7.28;;
1765;SDS011;880;52.452;8.656;2023-07-13T15:09:51;7.93;;;7.32;;
1765;SDS011;880;52.452;8.656;2023-07-13T15:12:21;6.90;;;6.38;;
1765;SDS011;880;52.452;8.656;2023-07-13T15:14:48;7.97;;;7.32;;
1765;SDS011;880;52.452;8.656;2023-07-13T15:17:31;7.78;;;7.10;;
1765;SDS011;880;52.452;8.656;2023-07-13T15:22:49;6.60;;;6.00;;
1765;SDS011;880;52.452;8.656;2023-07-13T15:25:20;6.88;;;5.82;;
1765;SDS011;880;52.452;8.656;2023-07-13T15:27:54;5.97;;;5.47;;
1765;SDS011;880;52.452;8.656;2023-07-13T15:30:28;6.97;;;6.28;;
1765;SDS011;880;52.452;8.656;2023-07-13T15:32:58;7.35;;;6.28;;
1765;SDS011;880;52.452;8.656;2023-07-13T15:35:37;6.97;;;6.38;;
1765;SDS011;880;52.452;8.656;2023-07-13T15:38:14;7.38;;;6.20;;
1765;SDS011;880;52.452;8.656;2023-07-13T15:40:49;6.75;;;5.78;;
1765;SDS011;880;52.452;8.656;2023-07-13T15:43:18;6.72;;;6.13;;
1765;SDS011;880;52.452;8.656;2023-07-13T15:45:46;8.88;;;6.97;;
1765;SDS011;880;52.452;8.656;2023-07-13T15:48:21;7.13;;;6.43;;
1765;SDS011;880;52.452;8.656;2023-07-13T15:50:53;9.15;;;7.18;;
1765;SDS011;880;52.452;8.656;2023-07-13T15:53:26;8.30;;;7.57;;
1765;SDS011;880;52.452;8.656;2023-07-13T15:55:57;8.77;;;7.10;;
1765;SDS011;880;52.452;8.656;2023-07-13T15:58:25;7.78;;;6.47;;
1765;SDS011;880;52.452;8.656;2023-07-13T16:00:52;9.15;;;7.75;;
1765;SDS011;880;52.452;8.656;2023-07-13T16:03:20;9.93;;;6.75;;
1765;SDS011;880;52.452;8.656;2023-07-13T16:05:48;9.52;;;6.75;;
1765;SDS011;880;52.452;8.656;2023-07-13T16:08:27;7.00;;;6.30;;
1765;SDS011;880;52.452;8.656;2023-07-13T16:11:01;8.57;;;7.13;;
1765;SDS011;880;52.452;8.656;2023-07-13T16:13:29;9.27;;;8.43;;
1765;SDS011;880;52.452;8.656;2023-07-13T16:15:56;6.88;;;6.30;;
1765;SDS011;880;52.452;8.656;2023-07-13T16:18:23;7.18;;;6.07;;
1765;SDS011;880;52.452;8.656;2023-07-13T16:20:51;7.90;;;7.07;;
1765;SDS011;880;52.452;8.656;2023-07-13T16:23:20;9.55;;;8.27;;
1765;SDS011;880;52.452;8.656;2023-07-13T16:25:48;11.25;;;10.15;;
1765;SDS011;880;52.452;8.656;2023-07-13T16:28:15;12.15;;;8.80;;
1765;SDS011;880;52.452;8.656;2023-07-13T16:30:42;9.77;;;8.77;;
1765;SDS011;880;52.452;8.656;2023-07-13T16:33:09;9.82;;;8.82;;
1765;SDS011;880;52.452;8.656;2023-07-13T16:35:38;10.55;;;9.50;;
1765;SDS011;880;52.452;8.656;2023-07-13T16:38:16;9.38;;;7.68;;
1765;SDS011;880;52.452;8.656;2023-07-13T16:40:47;7.20;;;6.03;;
1765;SDS011;880;52.452;8.656;2023-07-13T16:43:15;6.50;;;6.00;;
1765;SDS011;880;52.452;8.656;2023-07-13T16:45:48;8.48;;;5.80;;
1765;SDS011;880;52.452;8.656;2023-07-13T16:48:17;7.32;;;6.57;;
1765;SDS011;880;52.452;8.656;2023-07-13T16:50:55;6.22;;;5.72;;